createdAt,value
2018-07-26T20:59:02.939Z,4.50
2018-07-26T21:02:07.669Z,4.67
2018-07-26T21:05:11.356Z,4.35
2018-07-26T21:08:14.736Z,4.80
2018-07-26T21:11:18.318Z,4.10
2018-07-26T21:14:21.756Z,3.98
2018-07-26T21:17:25.377Z,4.17
2018-07-26T21:20:29.032Z,4.40
2018-07-26T21:23:32.770Z,4.15
2018-07-26T21:26:36.434Z,4.62
2018-07-26T21:29:40.072Z,4.30
2018-07-26T21:32:43.695Z,4.25
2018-07-26T21:35:47.329Z,4.33
2018-07-26T21:38:50.771Z,4.10
2018-07-26T21:41:54.591Z,4.58
2018-07-26T21:44:58.269Z,4.30
2018-07-26T21:48:01.960Z,4.10
2018-07-26T21:51:05.650Z,4.35
2018-07-26T21:54:09.292Z,4.00
2018-07-26T21:57:12.950Z,4.28
2018-07-26T22:00:17.060Z,4.10
2018-07-26T22:03:20.669Z,3.95
2018-07-26T22:06:24.523Z,4.58
2018-07-26T22:09:28.159Z,4.05
2018-07-26T22:12:31.793Z,4.03
2018-07-26T22:15:35.409Z,4.20
2018-07-26T22:18:39.133Z,3.75
2018-07-26T22:21:42.768Z,4.20
2018-07-26T22:24:46.435Z,4.55
2018-07-26T22:27:50.042Z,4.65
2018-07-26T22:30:53.685Z,4.60
2018-07-26T22:33:57.117Z,4.37
2018-07-26T22:37:00.689Z,4.92
2018-07-26T22:40:04.366Z,4.22
2018-07-26T22:43:08.258Z,4.65
2018-07-26T22:46:11.863Z,4.58
2018-07-26T22:49:15.509Z,4.53
2018-07-26T22:52:19.169Z,5.08
2018-07-26T22:55:22.768Z,4.70
2018-07-26T22:58:26.383Z,4.62
2018-07-26T23:01:30.281Z,5.05
2018-07-26T23:04:33.942Z,5.00
2018-07-26T23:07:37.612Z,4.92
2018-07-26T23:10:41.050Z,4.97
2018-07-26T23:13:44.698Z,4.95
2018-07-26T23:16:48.326Z,5.65
2018-07-26T23:19:51.776Z,5.25
2018-07-26T23:22:55.982Z,5.45
2018-07-26T23:25:59.751Z,5.20
2018-07-26T23:29:03.362Z,5.72
2018-07-26T23:32:07.048Z,5.67
2018-07-26T23:35:10.636Z,5.90
2018-07-26T23:38:14.307Z,5.97
2018-07-26T23:41:17.939Z,5.58
2018-07-26T23:44:21.611Z,5.35
2018-07-26T23:47:25.216Z,5.28
2018-07-26T23:50:28.892Z,5.42
2018-07-26T23:53:32.734Z,5.60
2018-07-26T23:56:36.404Z,5.45
2018-07-26T23:59:40.022Z,5.90
